Map

Track Data

SID SEASON NUMBER BASIN SUBBASIN NAME ISO_TIME NATURE LAT LON WMO_WIND WMO_PRES WMO_AGENCY TRACK_TYPE DIST2LAND LANDFALL IFLAG USA_AGENCY USA_ATCF_ID USA_LAT USA_LON USA_RECORD USA_STATUS USA_WIND USA_PRES USA_SSHS USA_R34_NE USA_R34_SE USA_R34_SW USA_R34_NW USA_R50_NE USA_R50_SE USA_R50_SW USA_R50_NW USA_R64_NE USA_R64_SE USA_R64_SW USA_R64_NW USA_POCI USA_ROCI USA_RMW USA_EYE TOKYO_LAT TOKYO_LON TOKYO_GRADE TOKYO_WIND TOKYO_PRES TOKYO_R50_DIR TOKYO_R50_LONG TOKYO_R50_SHORT TOKYO_R30_DIR TOKYO_R30_LONG TOKYO_R30_SHORT TOKYO_LAND CMA_LAT CMA_LON CMA_CAT CMA_WIND CMA_PRES HKO_LAT HKO_LON HKO_CAT HKO_WIND HKO_PRES NEWDELHI_LAT NEWDELHI_LON NEWDELHI_GRADE NEWDELHI_WIND NEWDELHI_PRES NEWDELHI_CI NEWDELHI_DP NEWDELHI_POCI REUNION_LAT REUNION_LON REUNION_TYPE REUNION_WIND REUNION_PRES REUNION_TNUM REUNION_CI REUNION_RMW REUNION_R34_NE REUNION_R34_SE REUNION_R34_SW REUNION_R34_NW REUNION_R50_NE REUNION_R50_SE REUNION_R50_SW REUNION_R50_NW REUNION_R64_NE REUNION_R64_SE REUNION_R64_SW REUNION_R64_NW BOM_LAT BOM_LON BOM_TYPE BOM_WIND BOM_PRES BOM_TNUM BOM_CI BOM_RMW BOM_R34_NE BOM_R34_SE BOM_R34_SW BOM_R34_NW BOM_R50_NE BOM_R50_SE BOM_R50_SW BOM_R50_NW BOM_R64_NE BOM_R64_SE BOM_R64_SW BOM_R64_NW BOM_ROCI BOM_POCI BOM_EYE BOM_POS_METHOD BOM_PRES_METHOD NADI_LAT NADI_LON NADI_CAT NADI_WIND NADI_PRES WELLINGTON_LAT WELLINGTON_LON WELLINGTON_WIND WELLINGTON_PRES DS824_LAT DS824_LON DS824_STAGE DS824_WIND DS824_PRES TD9636_LAT TD9636_LON TD9636_STAGE TD9636_WIND TD9636_PRES TD9635_LAT TD9635_LON TD9635_WIND TD9635_PRES TD9635_ROCI NEUMANN_LAT NEUMANN_LON NEUMANN_CLASS NEUMANN_WIND NEUMANN_PRES MLC_LAT MLC_LON MLC_CLASS MLC_WIND MLC_PRES USA_GUST BOM_GUST BOM_GUST_PER REUNION_GUST REUNION_GUST_PER USA_SEAHGT USA_SEARAD_NE USA_SEARAD_SE USA_SEARAD_SW USA_SEARAD_NW STORM_SPEED STORM_DIR
1906255N19118 1906 33 WP MM NOT_NAMED 1906-09-11 16:00:00 NR 19.4000 118.000 main 295 295 __________O___ -1 19.4000 118.000 2 13 272
1906255N19118 1906 33 WP MM NOT_NAMED 1906-09-11 18:00:00 NR 19.4119 117.536 main 344 344 __________P___ -1 19.4119 117.536 2 13 272
1906255N19118 1906 33 WP MM NOT_NAMED 1906-09-11 21:00:00 NR 19.4303 116.845 main 383 360 __________P___ -1 19.4303 116.845 2 13 272
1906255N19118 1906 33 WP MM NOT_NAMED 1906-09-12 00:00:00 NR 19.4536 116.168 main 360 337 __________P___ -1 19.4536 116.168 2 13 273
1906255N19118 1906 33 WP MM NOT_NAMED 1906-09-12 03:00:00 NR 19.4862 115.512 main 337 329 __________P___ -1 19.4862 115.512 2 12 273
1906255N19118 1906 33 WP MM NOT_NAMED 1906-09-12 04:00:00 NR 19.5000 115.300 main 329 319 __________O___ -1 19.5000 115.300 2 12 274
1906255N19118 1906 33 WP MM NOT_NAMED 1906-09-12 06:00:00 NR 19.5323 114.886 main 319 290 __________P___ -1 19.5323 114.886 2 11 275
1906255N19118 1906 33 WP MM NOT_NAMED 1906-09-12 09:00:00 NR 19.5877 114.290 main 290 267 __________P___ -1 19.5877 114.290 2 11 276
1906255N19118 1906 33 WP MM NOT_NAMED 1906-09-12 12:00:00 NR 19.6429 113.722 main 267 230 __________P___ -1 19.6429 113.722 2 11 275
1906255N19118 1906 33 WP MM NOT_NAMED 1906-09-12 15:00:00 NR 19.6886 113.177 main 230 209 __________P___ -1 19.6886 113.177 2 10 275
1906255N19118 1906 33 WP MM NOT_NAMED 1906-09-12 16:00:00 NR 19.7000 113.000 main 209 178 __________O___ -1 19.7000 113.000 2 10 272
1906255N19118 1906 33 WP MM NOT_NAMED 1906-09-12 18:00:00 NR 19.7082 112.652 main 178 115 __________P___ -1 19.7082 112.652 2 10 271
1906255N19118 1906 33 WP MM NOT_NAMED 1906-09-12 21:00:00 NR 19.7083 112.149 main 115 74 __________P___ -1 19.7083 112.149 2 9 270
1906255N19118 1906 33 WP MM NOT_NAMED 1906-09-13 00:00:00 NR 19.7020 111.658 main 74 23 __________P___ -1 19.7020 111.658 2 9 269
1906255N19118 1906 33 WP MM NOT_NAMED 1906-09-13 03:00:00 NR 19.6988 111.166 main 23 10 __________P___ -1 19.6988 111.166 2 9 270
1906255N19118 1906 33 WP MM NOT_NAMED 1906-09-13 04:00:00 NR 19.7000 111.000 main 10 0 __________O___ -1 19.7000 111.000 2 10 271
1906255N19118 1906 33 WP MM NOT_NAMED 1906-09-13 06:00:00 NR 19.7055 110.653 main 0 0 __________P___ -1 19.7055 110.653 2 10 271
1906255N19118 1906 33 WP MM NOT_NAMED 1906-09-13 09:00:00 NR 19.7201 110.126 main 0 0 __________P___ -1 19.7201 110.126 2 10 272
1906255N19118 1906 33 WP MM NOT_NAMED 1906-09-13 12:00:00 NR 19.7451 109.597 main 0 0 __________P___ -1 19.7451 109.597 2 10 274
1906255N19118 1906 33 WP MM NOT_NAMED 1906-09-13 15:00:00 NR 19.7836 109.073 main 15 23 __________P___ -1 19.7836 109.073 2 10 275
1906255N19118 1906 33 WP MM NOT_NAMED 1906-09-13 16:00:00 NR 19.8000 108.900 main 30 30 __________O___ -1 19.8000 108.900 2 10 276
1906255N19118 1906 33 WP MM NOT_NAMED 1906-09-13 18:00:00 NR 19.8384 108.558 main 45 49 __________P___ -1 19.8384 108.558 2 10 278
1906255N19118 1906 33 WP MM NOT_NAMED 1906-09-13 21:00:00 NR 19.9079 108.054 main 84 91 __________P___ -1 19.9079 108.054 2 10 279
1906255N19118 1906 33 WP MM NOT_NAMED 1906-09-14 00:00:00 NR 19.9872 107.557 main 108 56 __________P___ -1 19.9872 107.557 2 9 280
1906255N19118 1906 33 WP MM NOT_NAMED 1906-09-14 03:00:00 NR 20.0716 107.064 main 56 38 __________P___ -1 20.0716 107.064 2 9 280
1906255N19118 1906 33 WP MM NOT_NAMED 1906-09-14 04:00:00 NR 20.1000 106.900 main 38 __________O___ -1 20.1000 106.900 2 9 280

Digital Typhoon Data and Search

About IBTrACS Database

This database is a web-friendly format of International Best Track Archive for Climate Stewardship (IBTrACS), a global best track data archive curated by NOAA dating back to 1842.

Updated: 2021-12-08